createdAt,value
2018-09-14T00:00:48.103Z,14.84
2018-09-14T00:03:16.789Z,14.84
2018-09-14T00:05:45.485Z,14.82
2018-09-14T00:08:14.203Z,14.80
2018-09-14T00:10:42.928Z,14.78
2018-09-14T00:13:11.657Z,14.77
2018-09-14T00:15:40.379Z,14.77
2018-09-14T00:18:09.073Z,14.77
2018-09-14T00:20:37.769Z,14.76
2018-09-14T00:23:06.501Z,14.76
2018-09-14T00:25:35.230Z,14.75
2018-09-14T00:28:03.972Z,14.75
2018-09-14T00:30:32.649Z,14.73
2018-09-14T00:33:01.375Z,14.70
2018-09-14T00:35:30.107Z,14.69
2018-09-14T00:37:58.806Z,14.68
2018-09-14T00:40:27.548Z,14.67
2018-09-14T00:42:56.264Z,14.62
2018-09-14T00:45:24.955Z,14.61
2018-09-14T00:47:53.655Z,14.60
2018-09-14T00:50:22.349Z,14.61
2018-09-14T00:52:52.010Z,14.64
2018-09-14T00:55:20.786Z,14.63
2018-09-14T00:57:49.532Z,14.66
2018-09-14T01:00:18.240Z,14.68
2018-09-14T01:02:46.948Z,14.68
2018-09-14T01:05:16.569Z,14.70
2018-09-14T01:07:45.297Z,14.71
2018-09-14T01:10:14.002Z,14.68
2018-09-14T01:12:42.721Z,14.71
2018-09-14T01:15:12.330Z,14.72
2018-09-14T01:17:41.048Z,14.71
2018-09-14T01:20:09.813Z,14.67
2018-09-14T01:22:38.517Z,14.63
2018-09-14T01:25:07.286Z,14.62
2018-09-14T01:27:35.976Z,14.58
2018-09-14T01:30:04.814Z,14.55
2018-09-14T01:32:33.521Z,14.50
2018-09-14T01:35:02.266Z,14.49
2018-09-14T01:37:31.292Z,14.47
2018-09-14T01:39:59.968Z,14.46
2018-09-14T01:42:28.698Z,14.45
2018-09-14T01:44:57.388Z,14.37
2018-09-14T01:47:26.098Z,14.32
2018-09-14T01:49:54.792Z,14.26
2018-09-14T01:52:23.507Z,14.15
2018-09-14T01:54:52.208Z,14.10
2018-09-14T01:57:20.909Z,14.06
2018-09-14T01:59:49.584Z,14.01
2018-09-14T02:02:18.296Z,13.95
2018-09-14T02:04:46.988Z,13.89
2018-09-14T02:07:15.697Z,13.83
2018-09-14T02:09:44.427Z,13.79
2018-09-14T02:12:13.112Z,13.77
2018-09-14T02:14:41.815Z,13.74
2018-09-14T02:17:10.520Z,13.78
2018-09-14T02:19:39.216Z,13.79
2018-09-14T02:22:07.913Z,13.81
2018-09-14T02:24:36.630Z,13.86
2018-09-14T02:27:05.350Z,13.90
2018-09-14T02:29:34.066Z,13.90
2018-09-14T02:32:02.879Z,13.91
2018-09-14T02:34:31.559Z,13.88
2018-09-14T02:37:00.276Z,13.88
2018-09-14T02:39:29.016Z,13.86
2018-09-14T02:41:57.740Z,13.82
2018-09-14T02:44:26.504Z,13.80
2018-09-14T02:46:55.203Z,13.79
2018-09-14T02:49:23.893Z,13.80
2018-09-14T02:51:52.610Z,13.73
2018-09-14T02:54:21.376Z,13.78
2018-09-14T02:56:50.127Z,13.77
2018-09-14T02:59:18.818Z,13.77
2018-09-14T03:01:47.568Z,13.77
2018-09-14T03:04:16.229Z,13.78
2018-09-14T03:06:44.870Z,13.78
2018-09-14T03:09:13.536Z,13.82
2018-09-14T03:11:42.251Z,13.81
2018-09-14T03:14:10.979Z,13.81
2018-09-14T03:16:39.692Z,13.82
2018-09-14T03:19:08.436Z,13.82
2018-09-14T03:21:37.115Z,13.82
2018-09-14T03:24:05.782Z,13.80
2018-09-14T03:26:34.517Z,13.80
2018-09-14T03:29:03.236Z,13.79
2018-09-14T03:31:31.950Z,13.80
2018-09-14T03:34:00.630Z,13.81
2018-09-14T03:36:29.412Z,13.79
2018-09-14T03:38:58.121Z,13.80
2018-09-14T03:41:26.869Z,13.78
2018-09-14T03:43:55.658Z,13.78
2018-09-14T03:46:24.340Z,13.78
2018-09-14T03:48:53.024Z,13.79
2018-09-14T03:51:21.679Z,13.80
2018-09-14T03:53:50.364Z,13.80
2018-09-14T03:56:19.031Z,13.80
2018-09-14T03:58:47.755Z,13.81
2018-09-14T04:01:16.440Z,13.80
2018-09-14T04:03:45.142Z,13.80
2018-09-14T04:06:13.949Z,13.80
2018-09-14T04:08:42.647Z,13.81
2018-09-14T04:11:11.314Z,13.82
2018-09-14T04:13:39.979Z,13.81
2018-09-14T04:16:08.626Z,13.82
2018-09-14T04:18:37.996Z,13.81
2018-09-14T04:21:06.721Z,13.78
2018-09-14T04:23:35.413Z,13.74
2018-09-14T04:26:04.109Z,13.72
2018-09-14T04:28:32.840Z,13.69
2018-09-14T04:31:01.524Z,13.66
2018-09-14T04:33:30.201Z,13.63
2018-09-14T04:35:58.892Z,13.61
2018-09-14T04:38:27.584Z,13.61
2018-09-14T04:40:56.272Z,13.57
2018-09-14T04:43:24.937Z,13.55
2018-09-14T04:45:53.591Z,13.54
2018-09-14T04:48:22.275Z,13.54
2018-09-14T04:50:50.980Z,13.54
2018-09-14T04:53:19.651Z,13.55
2018-09-14T04:55:48.300Z,13.54
2018-09-14T04:58:17.934Z,13.47
2018-09-14T05:00:47.271Z,13.51
2018-09-14T05:03:15.998Z,13.50
2018-09-14T05:05:44.655Z,13.51
2018-09-14T05:08:13.338Z,13.51
2018-09-14T05:10:42.042Z,13.52
2018-09-14T05:13:10.715Z,13.52
2018-09-14T05:15:39.401Z,13.52
2018-09-14T05:18:08.253Z,13.53
2018-09-14T05:20:37.008Z,13.52
2018-09-14T05:23:05.712Z,13.52
2018-09-14T05:25:34.388Z,13.51
2018-09-14T05:28:03.031Z,13.50
2018-09-14T05:30:31.760Z,13.52
2018-09-14T05:33:00.475Z,13.53
2018-09-14T05:35:29.243Z,13.50
2018-09-14T05:37:57.944Z,13.52
2018-09-14T05:40:26.603Z,13.51
2018-09-14T05:42:55.289Z,13.53
2018-09-14T05:45:24.059Z,13.53
2018-09-14T05:47:52.731Z,13.53
2018-09-14T05:50:21.442Z,13.53
2018-09-14T05:52:50.109Z,13.57
2018-09-14T05:55:18.785Z,13.59
2018-09-14T05:57:47.484Z,13.60
2018-09-14T06:00:16.227Z,13.61
2018-09-14T06:02:44.993Z,13.63
2018-09-14T06:05:13.759Z,13.63
2018-09-14T06:07:42.456Z,13.66
2018-09-14T06:10:11.142Z,13.66
2018-09-14T06:12:39.827Z,13.63
2018-09-14T06:15:08.572Z,13.63
2018-09-14T06:17:37.280Z,13.61
2018-09-14T06:20:06.018Z,13.61
2018-09-14T06:22:34.741Z,13.59
2018-09-14T06:25:03.496Z,13.60
2018-09-14T06:27:32.243Z,13.62
2018-09-14T06:30:00.923Z,13.63
2018-09-14T06:32:30.004Z,13.64
2018-09-14T06:34:58.724Z,13.64
2018-09-14T06:37:27.494Z,13.63
2018-09-14T06:39:56.169Z,13.65
2018-09-14T06:42:24.860Z,13.67
2018-09-14T06:44:53.592Z,13.68
2018-09-14T06:47:22.250Z,13.72
2018-09-14T06:49:51.108Z,13.76
2018-09-14T06:52:19.920Z,13.80
2018-09-14T06:54:48.679Z,13.83
2018-09-14T06:57:17.396Z,13.85
2018-09-14T06:59:46.311Z,13.88
2018-09-14T07:02:15.089Z,13.92
2018-09-14T07:04:43.870Z,13.94
2018-09-14T07:07:12.557Z,13.96
2018-09-14T07:09:41.350Z,14.00
2018-09-14T07:12:10.046Z,14.03
2018-09-14T07:14:38.845Z,14.06
2018-09-14T07:17:07.644Z,14.08
2018-09-14T07:19:36.496Z,14.10
2018-09-14T07:22:05.233Z,14.14
2018-09-14T07:24:34.120Z,14.18
2018-09-14T07:27:02.885Z,14.23
2018-09-14T07:29:31.588Z,14.26
2018-09-14T07:32:00.319Z,14.34
2018-09-14T07:34:29.033Z,14.36
2018-09-14T07:36:57.739Z,14.40
2018-09-14T07:39:26.395Z,14.43
2018-09-14T07:41:55.079Z,14.48
2018-09-14T07:44:25.567Z,14.48
2018-09-14T07:46:54.242Z,14.39
2018-09-14T07:49:22.911Z,14.31
2018-09-14T07:51:51.567Z,14.21
2018-09-14T07:54:20.234Z,14.07
2018-09-14T07:56:48.898Z,13.94
2018-09-14T07:59:17.599Z,13.83
2018-09-14T08:01:46.263Z,13.77
2018-09-14T08:04:14.973Z,13.66
2018-09-14T08:06:43.741Z,13.70
2018-09-14T08:09:13.556Z,13.66
2018-09-14T08:11:42.568Z,13.67
2018-09-14T08:14:11.747Z,13.69
2018-09-14T08:16:40.482Z,13.69
2018-09-14T08:19:09.165Z,13.80
2018-09-14T08:21:37.885Z,13.92
2018-09-14T08:24:06.662Z,14.02
2018-09-14T08:26:35.356Z,14.07
2018-09-14T08:29:04.079Z,14.15
2018-09-14T08:31:32.780Z,14.22
2018-09-14T08:34:01.529Z,14.29
2018-09-14T08:36:30.229Z,14.37
2018-09-14T08:38:58.917Z,14.44
2018-09-14T08:41:27.633Z,14.52
2018-09-14T08:43:56.400Z,14.57
2018-09-14T08:46:25.141Z,14.64
2018-09-14T08:48:53.839Z,14.67
2018-09-14T08:51:22.552Z,14.78
2018-09-14T08:53:51.227Z,14.88
2018-09-14T08:56:19.944Z,14.89
2018-09-14T08:58:48.820Z,14.91
2018-09-14T09:01:17.559Z,14.97
2018-09-14T09:03:46.294Z,15.02
2018-09-14T09:06:14.947Z,15.04
2018-09-14T09:08:43.745Z,15.02
2018-09-14T09:11:12.468Z,14.95
2018-09-14T09:13:41.136Z,14.93
2018-09-14T09:16:09.831Z,14.92
2018-09-14T09:18:38.566Z,14.91
2018-09-14T09:21:07.275Z,14.96
2018-09-14T09:23:35.999Z,14.99
2018-09-14T09:26:04.791Z,14.99
2018-09-14T09:28:33.468Z,15.00
2018-09-14T09:31:02.221Z,14.99
2018-09-14T09:33:30.936Z,14.97
2018-09-14T09:35:59.640Z,14.94
2018-09-14T09:38:28.346Z,14.90
2018-09-14T09:40:57.018Z,14.89
2018-09-14T09:43:25.726Z,14.92
2018-09-14T09:45:54.431Z,14.93
2018-09-14T09:48:23.111Z,14.94
2018-09-14T09:50:51.926Z,14.98
2018-09-14T09:53:20.600Z,15.02
2018-09-14T09:55:49.424Z,15.12
2018-09-14T09:58:18.182Z,15.29
2018-09-14T10:00:52.048Z,15.46
2018-09-14T10:03:25.876Z,15.68
2018-09-14T10:06:27.318Z,15.84
2018-09-14T10:08:57.141Z,15.96
2018-09-14T10:11:26.688Z,15.97
2018-09-14T10:13:55.435Z,15.87
2018-09-14T10:16:24.133Z,15.80
2018-09-14T10:18:52.842Z,15.71
2018-09-14T10:21:21.626Z,15.63
2018-09-14T10:23:50.268Z,15.60
2018-09-14T10:26:18.966Z,15.61
2018-09-14T10:28:47.982Z,15.70
2018-09-14T10:31:16.669Z,15.70
2018-09-14T10:33:45.397Z,15.67
2018-09-14T10:36:14.165Z,15.69
2018-09-14T10:38:42.838Z,15.74
2018-09-14T10:41:11.555Z,15.83
2018-09-14T10:43:40.244Z,15.86
2018-09-14T10:46:08.945Z,15.96
2018-09-14T10:48:37.707Z,16.08
2018-09-14T10:51:06.396Z,16.27
2018-09-14T10:53:35.086Z,16.42
2018-09-14T10:56:03.851Z,16.50
2018-09-14T10:58:37.704Z,16.56
2018-09-14T11:01:06.439Z,16.61
2018-09-14T11:03:35.123Z,16.73
2018-09-14T11:06:03.815Z,16.82
2018-09-14T11:08:32.518Z,16.81
2018-09-14T11:11:01.238Z,16.79
2018-09-14T11:13:29.947Z,16.65
2018-09-14T11:15:58.616Z,16.59
2018-09-14T11:18:27.623Z,16.52
2018-09-14T11:20:56.299Z,16.57
2018-09-14T11:23:24.945Z,16.67
2018-09-14T11:25:54.202Z,16.78
2018-09-14T11:28:22.887Z,16.86
2018-09-14T11:30:51.579Z,16.94
2018-09-14T11:33:20.392Z,17.14
2018-09-14T11:35:49.147Z,17.34
2018-09-14T11:38:17.924Z,17.34
2018-09-14T11:40:46.610Z,17.32
2018-09-14T11:43:18.567Z,17.30
2018-09-14T11:45:47.248Z,17.34
2018-09-14T11:48:15.995Z,17.35
2018-09-14T11:50:44.680Z,17.35
2018-09-14T11:53:13.466Z,17.28
2018-09-14T11:55:42.165Z,17.21
2018-09-14T11:58:10.922Z,17.05
2018-09-14T12:00:39.648Z,17.05
2018-09-14T12:03:08.637Z,17.11
2018-09-14T12:05:37.584Z,17.40
2018-09-14T12:08:06.580Z,17.64
2018-09-14T12:10:35.408Z,17.76
2018-09-14T12:13:04.160Z,17.89
2018-09-14T12:15:33.062Z,18.03
2018-09-14T12:18:01.919Z,18.00
2018-09-14T12:20:30.722Z,18.06
2018-09-14T12:22:59.501Z,17.93
2018-09-14T12:25:28.562Z,18.03
2018-09-14T12:27:57.342Z,18.15
2018-09-14T12:30:26.180Z,18.25
2018-09-14T12:32:55.161Z,18.48
2018-09-14T12:35:23.935Z,18.60
2018-09-14T12:37:52.803Z,18.50
2018-09-14T12:40:21.582Z,18.51
2018-09-14T12:42:50.394Z,18.43
2018-09-14T12:45:19.226Z,18.19
2018-09-14T12:47:47.909Z,17.66
2018-09-14T12:50:16.713Z,17.39
2018-09-14T12:52:45.451Z,17.19
2018-09-14T12:55:14.363Z,17.10
2018-09-14T12:57:43.196Z,17.31
2018-09-14T13:00:11.984Z,17.64
2018-09-14T13:02:40.679Z,17.90
2018-09-14T13:05:09.528Z,18.19
2018-09-14T13:07:38.299Z,18.20
2018-09-14T13:10:07.203Z,17.98
2018-09-14T13:12:35.970Z,18.20
2018-09-14T13:15:04.899Z,18.55
2018-09-14T13:17:33.597Z,18.75
2018-09-14T13:20:02.426Z,18.57
2018-09-14T13:22:31.209Z,18.51
2018-09-14T13:24:59.995Z,18.73
2018-09-14T13:27:28.952Z,18.87
2018-09-14T13:29:57.836Z,18.96
2018-09-14T13:32:26.523Z,19.09
2018-09-14T13:34:55.423Z,19.29
2018-09-14T13:37:24.192Z,19.50
2018-09-14T13:39:52.998Z,19.64
2018-09-14T13:42:22.000Z,19.58
2018-09-14T13:44:50.832Z,19.67
2018-09-14T13:47:19.617Z,19.72
2018-09-14T13:49:48.357Z,19.90
2018-09-14T13:52:17.104Z,19.90
2018-09-14T13:54:45.759Z,19.89
2018-09-14T13:57:14.424Z,20.01
2018-09-14T13:59:43.092Z,20.13
2018-09-14T14:02:11.755Z,20.12
2018-09-14T14:04:40.408Z,20.26
2018-09-14T14:07:09.059Z,20.23
2018-09-14T14:09:37.775Z,20.19
2018-09-14T14:12:06.432Z,20.19
2018-09-14T14:14:35.099Z,20.28
2018-09-14T14:17:03.817Z,20.49
2018-09-14T14:19:32.473Z,20.62
2018-09-14T14:22:01.212Z,20.56
2018-09-14T14:24:29.863Z,20.55
2018-09-14T14:26:58.530Z,20.52
2018-09-14T14:29:27.258Z,20.37
2018-09-14T14:31:55.899Z,20.12
2018-09-14T14:34:32.023Z,19.89
2018-09-14T14:37:00.786Z,19.67
2018-09-14T14:39:29.519Z,19.50
2018-09-14T14:41:58.189Z,19.33
2018-09-14T14:44:26.907Z,19.24
2018-09-14T14:46:55.578Z,19.05
2018-09-14T14:49:24.358Z,18.89
2018-09-14T14:51:53.072Z,18.77
2018-09-14T14:54:21.734Z,18.60
2018-09-14T14:56:50.417Z,18.50
2018-09-14T14:59:19.139Z,18.36
2018-09-14T15:01:47.891Z,18.30
2018-09-14T15:04:16.537Z,18.29
2018-09-14T15:06:45.181Z,18.40
2018-09-14T15:09:13.929Z,18.62
2018-09-14T15:11:42.611Z,18.69
2018-09-14T15:14:11.324Z,18.70
2018-09-14T15:16:40.042Z,18.66
2018-09-14T15:19:08.744Z,18.56
2018-09-14T15:21:37.414Z,18.41
2018-09-14T15:24:06.202Z,18.23
2018-09-14T15:26:34.908Z,18.12
2018-09-14T15:29:03.749Z,18.12
2018-09-14T15:31:32.412Z,18.06
2018-09-14T15:34:01.642Z,17.98
2018-09-14T15:36:30.561Z,17.85
2018-09-14T15:38:59.345Z,17.81
2018-09-14T15:41:28.208Z,17.78
2018-09-14T15:43:57.008Z,17.71
2018-09-14T15:46:33.838Z,17.68
2018-09-14T15:49:02.656Z,17.68
2018-09-14T15:51:31.633Z,17.77
2018-09-14T15:54:00.339Z,17.75
2018-09-14T15:56:29.265Z,17.87
2018-09-14T15:58:58.094Z,18.19
2018-09-14T16:01:27.072Z,18.36
2018-09-14T16:03:55.828Z,18.54
2018-09-14T16:06:25.269Z,18.58
2018-09-14T16:08:54.080Z,18.51
2018-09-14T16:11:22.841Z,18.40
2018-09-14T16:13:51.701Z,18.33
2018-09-14T16:16:20.405Z,18.21
2018-09-14T16:18:49.217Z,18.08
2018-09-14T16:21:17.828Z,18.01
2018-09-14T16:23:46.573Z,17.98
2018-09-14T16:26:15.260Z,18.03
2018-09-14T16:28:43.904Z,18.14
2018-09-14T16:31:12.553Z,18.18
2018-09-14T16:33:41.292Z,18.12
2018-09-14T16:36:10.052Z,18.14
2018-09-14T16:38:38.835Z,18.01
2018-09-14T16:41:07.621Z,17.87
2018-09-14T16:43:36.379Z,17.77
2018-09-14T16:46:05.105Z,17.72
2018-09-14T16:48:33.956Z,17.94
2018-09-14T16:51:02.793Z,18.29
2018-09-14T16:53:31.543Z,18.36
2018-09-14T16:56:00.272Z,18.25
2018-09-14T16:58:29.027Z,18.05
2018-09-14T17:00:57.888Z,17.87
2018-09-14T17:03:26.666Z,17.83
2018-09-14T17:05:55.470Z,17.77
2018-09-14T17:08:24.203Z,17.72
2018-09-14T17:10:53.091Z,17.61
2018-09-14T17:13:21.909Z,17.52
2018-09-14T17:15:50.728Z,17.37
2018-09-14T17:18:19.487Z,17.33
2018-09-14T17:20:48.258Z,17.27
2018-09-14T17:23:17.011Z,17.21
2018-09-14T17:25:45.753Z,17.15
2018-09-14T17:28:14.487Z,17.09
2018-09-14T17:30:43.375Z,17.04
2018-09-14T17:33:12.227Z,17.01
2018-09-14T17:35:41.197Z,16.98
2018-09-14T17:38:10.100Z,16.96
2018-09-14T17:40:38.807Z,16.96
2018-09-14T17:43:07.547Z,16.87
2018-09-14T17:45:36.520Z,16.80
2018-09-14T17:48:05.350Z,16.81
2018-09-14T17:50:34.219Z,16.78
2018-09-14T17:53:03.044Z,16.78
2018-09-14T17:55:31.984Z,16.74
2018-09-14T17:58:00.881Z,16.73
2018-09-14T18:00:29.740Z,16.71
2018-09-14T18:02:58.575Z,16.69
2018-09-14T18:05:27.348Z,16.67
2018-09-14T18:07:56.420Z,16.62
2018-09-14T18:10:25.204Z,16.59
2018-09-14T18:12:54.037Z,16.54
2018-09-14T18:15:22.950Z,16.51
2018-09-14T18:17:51.677Z,16.47
2018-09-14T18:20:20.446Z,16.44
2018-09-14T18:22:49.255Z,16.42
2018-09-14T18:25:18.284Z,16.37
2018-09-14T18:27:47.258Z,16.29
2018-09-14T18:30:15.948Z,16.15
2018-09-14T18:32:44.685Z,16.10
2018-09-14T18:35:13.407Z,16.06
2018-09-14T18:37:49.124Z,16.01
2018-09-14T18:40:17.817Z,16.00
2018-09-14T18:42:48.120Z,15.94
2018-09-14T18:45:16.797Z,15.91
2018-09-14T18:47:45.483Z,15.87
2018-09-14T18:50:14.174Z,15.89
2018-09-14T18:52:42.879Z,15.88
2018-09-14T18:55:11.590Z,15.87
2018-09-14T18:57:41.115Z,15.86
2018-09-14T19:00:09.930Z,15.88
2018-09-14T19:02:38.652Z,15.88
2018-09-14T19:05:07.460Z,15.88
2018-09-14T19:07:36.202Z,15.88
2018-09-14T19:10:04.980Z,15.89
2018-09-14T19:12:33.772Z,15.90
2018-09-14T19:15:02.461Z,15.91
2018-09-14T19:17:31.167Z,15.91
2018-09-14T19:19:59.988Z,15.93
2018-09-14T19:22:28.760Z,15.94
2018-09-14T19:24:57.838Z,15.94
2018-09-14T19:27:26.552Z,15.95
2018-09-14T19:29:55.278Z,15.93
2018-09-14T19:32:23.979Z,15.94
2018-09-14T19:34:52.665Z,15.90
2018-09-14T19:37:21.356Z,15.90
2018-09-14T19:39:50.056Z,15.88
2018-09-14T19:42:18.756Z,15.89
2018-09-14T19:44:47.460Z,15.88
2018-09-14T19:47:16.159Z,15.87
2018-09-14T19:49:44.821Z,15.88
2018-09-14T19:52:13.542Z,15.91
2018-09-14T19:54:42.226Z,15.91
2018-09-14T19:57:10.930Z,15.86
2018-09-14T19:59:39.657Z,15.86
2018-09-14T20:02:08.439Z,15.81
2018-09-14T20:04:37.132Z,15.79
2018-09-14T20:07:05.875Z,15.78
2018-09-14T20:09:34.598Z,15.76
2018-09-14T20:12:03.384Z,15.76
2018-09-14T20:14:32.092Z,15.75
2018-09-14T20:17:00.791Z,15.73
2018-09-14T20:19:29.494Z,15.72
2018-09-14T20:21:58.187Z,15.69
2018-09-14T20:24:26.897Z,15.72
2018-09-14T20:26:55.581Z,15.72
2018-09-14T20:29:24.283Z,15.72
2018-09-14T20:31:52.982Z,15.72
2018-09-14T20:34:21.676Z,15.74
2018-09-14T20:36:50.388Z,15.73
2018-09-14T20:39:19.106Z,15.72
2018-09-14T20:41:47.800Z,15.71
2018-09-14T20:44:16.571Z,15.72
2018-09-14T20:46:45.265Z,15.70
2018-09-14T20:49:13.966Z,15.70
2018-09-14T20:51:42.744Z,15.70
2018-09-14T20:54:11.399Z,15.69
2018-09-14T20:56:40.092Z,15.69
2018-09-14T20:59:08.895Z,15.69
2018-09-14T21:01:37.588Z,15.70
2018-09-14T21:04:06.288Z,15.69
2018-09-14T21:06:35.056Z,15.69
2018-09-14T21:09:04.032Z,15.69
2018-09-14T21:11:32.771Z,15.69
2018-09-14T21:14:01.523Z,15.70
2018-09-14T21:16:30.240Z,15.71
2018-09-14T21:18:58.956Z,15.69
2018-09-14T21:21:27.689Z,15.70
2018-09-14T21:23:56.367Z,15.70
2018-09-14T21:26:25.147Z,15.69
2018-09-14T21:28:53.836Z,15.69
2018-09-14T21:31:22.514Z,15.70
2018-09-14T21:33:51.219Z,15.69
2018-09-14T21:36:19.920Z,15.69
2018-09-14T21:38:48.635Z,15.68
2018-09-14T21:41:17.336Z,15.68
2018-09-14T21:43:46.021Z,15.67
2018-09-14T21:46:14.838Z,15.65
2018-09-14T21:48:43.542Z,15.66
2018-09-14T21:51:12.266Z,15.65
2018-09-14T21:53:41.039Z,15.67
2018-09-14T21:56:09.713Z,15.65
2018-09-14T21:58:38.426Z,15.64
2018-09-14T22:01:14.736Z,15.62
2018-09-14T22:03:44.904Z,15.62
2018-09-14T22:06:13.617Z,15.62
2018-09-14T22:08:42.620Z,15.62
2018-09-14T22:11:11.327Z,15.61
2018-09-14T22:13:40.036Z,15.59
2018-09-14T22:16:08.749Z,15.59
2018-09-14T22:18:37.429Z,15.56
2018-09-14T22:21:06.757Z,15.55
2018-09-14T22:23:35.444Z,15.49
2018-09-14T22:26:04.195Z,15.53
2018-09-14T22:28:32.944Z,15.55
2018-09-14T22:31:01.631Z,15.57
2018-09-14T22:33:30.363Z,15.56
2018-09-14T22:35:59.204Z,15.56
2018-09-14T22:38:27.976Z,15.54
2018-09-14T22:40:56.733Z,15.52
2018-09-14T22:43:25.486Z,15.53
2018-09-14T22:45:54.196Z,15.53
2018-09-14T22:48:22.956Z,15.52
2018-09-14T22:50:51.701Z,15.52
2018-09-14T22:53:20.486Z,15.49
2018-09-14T22:55:49.212Z,15.49
2018-09-14T22:58:17.940Z,15.47
2018-09-14T23:00:51.722Z,15.45
2018-09-14T23:03:20.410Z,15.46
2018-09-14T23:05:49.100Z,15.46
2018-09-14T23:08:17.775Z,15.46
2018-09-14T23:10:46.443Z,15.49
2018-09-14T23:13:15.116Z,15.51
2018-09-14T23:15:48.904Z,15.51
2018-09-14T23:18:17.589Z,15.52
2018-09-14T23:20:46.336Z,15.52
2018-09-14T23:23:15.098Z,15.52
2018-09-14T23:25:43.780Z,15.52
2018-09-14T23:28:12.477Z,15.49
2018-09-14T23:30:41.152Z,15.48
2018-09-14T23:33:09.852Z,15.45
2018-09-14T23:35:38.556Z,15.43
2018-09-14T23:38:07.257Z,15.42
2018-09-14T23:40:35.965Z,15.42
2018-09-14T23:43:04.632Z,15.41
2018-09-14T23:45:33.420Z,15.42
2018-09-14T23:48:02.133Z,15.43
2018-09-14T23:50:30.846Z,15.42
2018-09-14T23:52:59.549Z,15.39
2018-09-14T23:55:29.124Z,15.37
2018-09-14T23:57:57.795Z,15.33
